createdAt,value
2023-03-27T00:00:29.666Z,98681.15
2023-03-27T00:02:59.644Z,98684.28
2023-03-27T00:05:28.170Z,98684.73
2023-03-27T00:07:56.340Z,98683.87
2023-03-27T00:10:24.936Z,98681.27
2023-03-27T00:12:53.304Z,98681.67
2023-03-27T00:15:22.154Z,98682.08
2023-03-27T00:17:53.005Z,98683.13
2023-03-27T00:20:27.453Z,98684.09
2023-03-27T00:22:58.494Z,98686.13
2023-03-27T00:25:30.561Z,98686.96
2023-03-27T00:28:10.718Z,98687.88
2023-03-27T00:30:42.302Z,98686.64
2023-03-27T00:33:18.122Z,98684.05
2023-03-27T00:35:47.787Z,98685.52
2023-03-27T00:38:18.559Z,98688.52
2023-03-27T00:40:47.379Z,98688.98
2023-03-27T00:43:35.399Z,98685.97
2023-03-27T00:46:16.303Z,98683.81
2023-03-27T00:48:48.158Z,98681.83
2023-03-27T00:51:16.831Z,98679.11
2023-03-27T00:53:44.990Z,98681.55
2023-03-27T00:56:15.940Z,98682.43
2023-03-27T00:58:45.126Z,98688.45
2023-03-27T01:01:14.969Z,98688.68
2023-03-27T01:03:47.194Z,98689.44
2023-03-27T01:06:17.327Z,98689.71
2023-03-27T01:08:47.049Z,98688.96
2023-03-27T01:11:39.705Z,98684.85
2023-03-27T01:14:09.910Z,98685.23
2023-03-27T01:16:56.723Z,98693.77
2023-03-27T01:20:04.625Z,98695.25
2023-03-27T01:22:55.737Z,98697.69
2023-03-27T01:25:36.300Z,98692.71
2023-03-27T01:28:33.367Z,98686.41
2023-03-27T01:31:28.760Z,98685.98
2023-03-27T01:34:06.873Z,98688.30
2023-03-27T01:36:52.005Z,98687.52
2023-03-27T01:39:23.407Z,98682.81
2023-03-27T01:42:04.683Z,98682.50
2023-03-27T01:44:45.649Z,98685.81
2023-03-27T01:47:14.040Z,98686.02
2023-03-27T01:49:45.895Z,98690.15
2023-03-27T01:52:20.975Z,98693.80
2023-03-27T01:54:56.024Z,98691.61
2023-03-27T01:57:48.906Z,98684.54
2023-03-27T02:00:22.625Z,98678.33
2023-03-27T02:03:00.449Z,98681.16
2023-03-27T02:05:33.195Z,98687.71
2023-03-27T02:08:15.824Z,98680.95
2023-03-27T02:10:47.782Z,98682.44
2023-03-27T02:13:19.917Z,98683.50
2023-03-27T02:15:49.567Z,98681.91
2023-03-27T02:18:23.804Z,98681.25
2023-03-27T02:20:54.419Z,98685.58
2023-03-27T02:23:23.613Z,98689.48
2023-03-27T02:25:52.396Z,98693.60
2023-03-27T02:28:32.448Z,98694.56
2023-03-27T02:31:33.681Z,98693.83
2023-03-27T02:34:32.298Z,98701.83
2023-03-27T02:37:22.888Z,98703.58
2023-03-27T02:40:45.948Z,98705.23
2023-03-27T02:44:03.697Z,98710.16
2023-03-27T02:46:52.442Z,98711.29
2023-03-27T02:49:24.406Z,98719.82
2023-03-27T02:51:58.013Z,98722.44
2023-03-27T02:54:28.592Z,98727.50
2023-03-27T02:56:59.229Z,98733.02
2023-03-27T02:59:42.673Z,98729.12
2023-03-27T03:02:21.182Z,98734.40
2023-03-27T03:05:07.432Z,98738.63
2023-03-27T03:07:40.513Z,98746.38
2023-03-27T03:10:11.855Z,98751.16
2023-03-27T03:12:40.557Z,98750.02
2023-03-27T03:15:10.825Z,98755.73
2023-03-27T03:17:39.187Z,98757.88
2023-03-27T03:20:13.682Z,98755.19
2023-03-27T03:22:42.664Z,98758.48
2023-03-27T03:25:11.253Z,98758.88
2023-03-27T03:27:41.981Z,98761.35
2023-03-27T03:30:16.591Z,98760.56
2023-03-27T03:32:55.635Z,98762.90
2023-03-27T03:35:24.967Z,98760.02
2023-03-27T03:37:54.817Z,98763.50
2023-03-27T03:40:23.296Z,98761.92
2023-03-27T03:42:53.055Z,98768.61
2023-03-27T03:45:25.008Z,98772.21
2023-03-27T03:47:53.420Z,98774.92
2023-03-27T03:50:21.662Z,98775.41
2023-03-27T03:52:50.250Z,98778.58
2023-03-27T03:55:19.651Z,98776.20
2023-03-27T03:57:50.389Z,98776.02
2023-03-27T04:00:27.058Z,98781.23
2023-03-27T04:02:57.834Z,98780.20
2023-03-27T04:05:26.383Z,98781.44
2023-03-27T04:08:01.716Z,98781.10
2023-03-27T04:10:52.501Z,98782.40
2023-03-27T04:13:39.433Z,98778.70
2023-03-27T04:16:17.660Z,98782.27
2023-03-27T04:18:54.776Z,98784.39
2023-03-27T04:21:27.712Z,98785.96
2023-03-27T04:24:02.922Z,98786.66
2023-03-27T04:26:44.762Z,98784.92
2023-03-27T04:29:32.106Z,98783.27
2023-03-27T04:32:00.455Z,98780.96
2023-03-27T04:34:51.784Z,98781.08
2023-03-27T04:37:30.653Z,98786.64
2023-03-27T04:40:19.048Z,98785.55
2023-03-27T04:42:50.565Z,98788.91
2023-03-27T04:45:23.689Z,98789.88
2023-03-27T04:47:56.628Z,98789.66
2023-03-27T04:50:26.101Z,98784.20
2023-03-27T04:53:00.195Z,98784.17
2023-03-27T04:55:39.693Z,98788.70
2023-03-27T04:58:09.959Z,98792.42
2023-03-27T05:00:43.349Z,98788.02
2023-03-27T05:03:13.052Z,98791.40
2023-03-27T05:05:54.253Z,98794.25
2023-03-27T05:08:23.033Z,98790.56
2023-03-27T05:10:51.213Z,98795.67
2023-03-27T05:13:22.959Z,98798.58
2023-03-27T05:15:54.005Z,98801.36
2023-03-27T05:18:23.100Z,98797.52
2023-03-27T05:21:00.592Z,98803.05
2023-03-27T05:23:28.978Z,98799.70
2023-03-27T05:26:00.035Z,98798.83
2023-03-27T05:28:38.221Z,98803.15
2023-03-27T05:31:06.830Z,98807.40
2023-03-27T05:33:45.937Z,98802.06
2023-03-27T05:36:15.650Z,98807.34
2023-03-27T05:38:44.605Z,98814.11
2023-03-27T05:41:18.455Z,98810.86
2023-03-27T05:43:51.227Z,98809.73
2023-03-27T05:46:21.267Z,98809.55
2023-03-27T05:49:05.601Z,98803.95
2023-03-27T05:51:35.636Z,98798.94
2023-03-27T05:54:04.407Z,98799.33
2023-03-27T05:56:37.969Z,98799.11
2023-03-27T05:59:07.826Z,98801.80
2023-03-27T06:01:37.541Z,98795.99
2023-03-27T06:04:09.554Z,98797.52
2023-03-27T06:07:15.149Z,98804.77
2023-03-27T06:09:48.042Z,98799.73
2023-03-27T06:12:41.997Z,98802.66
2023-03-27T06:15:19.098Z,98805.09
2023-03-27T06:17:55.305Z,98806.11
2023-03-27T06:20:36.763Z,98803.27
2023-03-27T06:23:08.504Z,98799.59
2023-03-27T06:25:39.816Z,98799.00
2023-03-27T06:28:10.387Z,98799.67
2023-03-27T06:30:43.884Z,98797.23
2023-03-27T06:33:49.139Z,98799.10
2023-03-27T06:36:35.065Z,98806.09
2023-03-27T06:39:08.414Z,98807.34
2023-03-27T06:41:38.330Z,98812.16
2023-03-27T06:44:39.374Z,98811.89
2023-03-27T06:47:18.751Z,98814.13
2023-03-27T06:50:09.354Z,98818.09
2023-03-27T06:52:39.760Z,98819.00
2023-03-27T06:55:37.513Z,98818.66
2023-03-27T06:58:09.581Z,98813.88
2023-03-27T07:00:39.384Z,98816.78
2023-03-27T07:03:20.920Z,98820.96
2023-03-27T07:06:32.361Z,98824.64
2023-03-27T07:09:08.334Z,98828.59
2023-03-27T07:11:37.719Z,98824.92
2023-03-27T07:14:12.651Z,98827.41
2023-03-27T07:16:41.154Z,98820.92
2023-03-27T07:19:10.121Z,98823.54
2023-03-27T07:21:42.293Z,98820.70
2023-03-27T07:24:12.516Z,98818.30
2023-03-27T07:26:41.920Z,98820.61
2023-03-27T07:29:33.240Z,98819.55
2023-03-27T07:32:08.809Z,98820.42
2023-03-27T07:34:45.659Z,98827.65
2023-03-27T07:37:16.395Z,98834.52
2023-03-27T07:40:11.614Z,98830.11
2023-03-27T07:42:45.530Z,98837.02
2023-03-27T07:45:23.865Z,98843.38
2023-03-27T07:47:53.448Z,98839.08
2023-03-27T07:50:24.377Z,98837.86
2023-03-27T07:52:53.572Z,98835.56
2023-03-27T07:55:23.394Z,98833.86
2023-03-27T07:58:09.083Z,98825.84
2023-03-27T08:00:39.908Z,98821.11
2023-03-27T08:03:13.097Z,98824.13
2023-03-27T08:05:58.411Z,98818.88
2023-03-27T08:08:29.315Z,98821.16
2023-03-27T08:10:59.762Z,98823.50
2023-03-27T08:13:33.445Z,98820.77
2023-03-27T08:16:15.602Z,98819.95
2023-03-27T08:18:46.450Z,98810.86
2023-03-27T08:21:15.893Z,98813.30
2023-03-27T08:23:46.316Z,98815.15
2023-03-27T08:26:50.739Z,98816.14
2023-03-27T08:29:24.546Z,98817.42
2023-03-27T08:31:56.650Z,98820.10
2023-03-27T08:34:28.269Z,98813.17
2023-03-27T08:36:58.389Z,98812.95
2023-03-27T08:39:34.979Z,98809.95
2023-03-27T08:42:08.901Z,98814.77
2023-03-27T08:44:40.217Z,98810.38
2023-03-27T08:47:23.273Z,98812.27
2023-03-27T08:50:05.159Z,98814.30
2023-03-27T08:52:46.323Z,98809.14
2023-03-27T08:55:26.412Z,98814.49
2023-03-27T08:58:06.113Z,98813.66
2023-03-27T09:00:39.823Z,98809.55
2023-03-27T09:03:26.198Z,98809.64
2023-03-27T09:06:02.707Z,98807.17
2023-03-27T09:08:53.439Z,98805.38
2023-03-27T09:11:55.280Z,98797.89
2023-03-27T09:14:37.076Z,98799.36
2023-03-27T09:17:39.349Z,98796.99
2023-03-27T09:20:43.133Z,98793.63
2023-03-27T09:23:39.535Z,98794.21
2023-03-27T09:26:30.517Z,98794.27
2023-03-27T09:29:23.637Z,98790.02
2023-03-27T09:31:57.961Z,98786.10
2023-03-27T09:34:32.896Z,98791.93
2023-03-27T09:37:17.544Z,98790.67
2023-03-27T09:39:51.275Z,98793.88
2023-03-27T09:42:32.256Z,98792.42
2023-03-27T09:45:08.109Z,98791.89
2023-03-27T09:48:02.545Z,98792.22
2023-03-27T09:50:47.351Z,98788.70
2023-03-27T09:53:33.338Z,98784.98
2023-03-27T09:56:26.216Z,98778.16
2023-03-27T09:58:57.169Z,98781.45
2023-03-27T10:01:35.123Z,98779.52
2023-03-27T10:04:17.997Z,98778.65
2023-03-27T10:07:03.074Z,98774.80
2023-03-27T10:09:43.377Z,98775.64
2023-03-27T10:12:18.376Z,98771.39
2023-03-27T10:14:52.238Z,98774.86
2023-03-27T10:17:38.699Z,98769.86
2023-03-27T10:21:09.312Z,98770.45
2023-03-27T10:23:44.877Z,98765.06
2023-03-27T10:26:32.234Z,98769.48
2023-03-27T10:29:08.016Z,98764.95
2023-03-27T10:31:42.636Z,98766.27
2023-03-27T10:34:55.134Z,98769.38
2023-03-27T10:37:50.108Z,98759.19
2023-03-27T10:40:35.806Z,98760.95
2023-03-27T10:43:12.882Z,98757.17
2023-03-27T10:45:48.911Z,98760.48
2023-03-27T10:48:52.595Z,98760.21
2023-03-27T10:51:50.886Z,98754.20
2023-03-27T10:55:08.886Z,98754.30
2023-03-27T11:01:26.686Z,98751.41
2023-03-27T11:04:11.395Z,98747.95
2023-03-27T11:06:49.120Z,98747.38
2023-03-27T11:09:28.909Z,98746.23
2023-03-27T11:12:21.345Z,98747.20
2023-03-27T11:15:05.469Z,98745.21
2023-03-27T11:17:45.188Z,98741.94
2023-03-27T11:20:47.121Z,98737.66
2023-03-27T11:23:58.972Z,98739.65
2023-03-27T11:26:40.153Z,98734.25
2023-03-27T11:29:23.230Z,98732.23
2023-03-27T11:31:57.482Z,98736.48
2023-03-27T11:34:48.591Z,98733.64
2023-03-27T11:37:40.806Z,98733.77
2023-03-27T11:40:24.865Z,98727.34
2023-03-27T11:42:59.092Z,98724.30
2023-03-27T11:45:32.994Z,98725.02
2023-03-27T11:48:43.577Z,98721.89
2023-03-27T11:51:18.085Z,98722.17
2023-03-27T11:53:57.423Z,98721.70
2023-03-27T11:56:54.956Z,98718.58
2023-03-27T12:00:28.698Z,98712.37
2023-03-27T12:03:00.511Z,98710.81
2023-03-27T12:05:54.718Z,98708.91
2023-03-27T12:09:05.001Z,98700.64
2023-03-27T12:11:51.729Z,98696.31
2023-03-27T12:14:43.474Z,98695.73
2023-03-27T12:17:21.353Z,98692.25
2023-03-27T12:21:05.012Z,98692.11
2023-03-27T12:23:46.910Z,98701.77
2023-03-27T12:27:35.439Z,98702.94
2023-03-27T12:30:58.378Z,98702.45
2023-03-27T12:33:27.193Z,98701.77
2023-03-27T12:36:04.130Z,98699.15
2023-03-27T12:38:40.744Z,98694.02
2023-03-27T12:41:14.445Z,98692.39
2023-03-27T12:44:04.940Z,98689.89
2023-03-27T12:46:43.073Z,98687.23
2023-03-27T12:49:13.917Z,98686.12
2023-03-27T12:51:54.208Z,98684.73
2023-03-27T12:55:03.971Z,98684.89
2023-03-27T12:57:55.683Z,98686.89
2023-03-27T13:01:00.737Z,98686.95
2023-03-27T13:03:59.699Z,98678.05
2023-03-27T13:06:40.851Z,98675.44
2023-03-27T13:09:51.620Z,98673.33
2023-03-27T13:12:30.954Z,98667.24
2023-03-27T13:15:57.225Z,98662.13
2023-03-27T13:18:58.356Z,98659.05
2023-03-27T13:21:53.203Z,98658.44
2023-03-27T13:24:34.512Z,98656.49
2023-03-27T13:27:30.518Z,98660.56
2023-03-27T13:30:02.965Z,98656.15
2023-03-27T13:33:33.354Z,98657.25
2023-03-27T13:36:26.924Z,98650.55
2023-03-27T13:39:07.529Z,98646.77
2023-03-27T13:41:42.520Z,98642.98
2023-03-27T13:44:45.089Z,98646.36
2023-03-27T13:47:34.622Z,98643.99
2023-03-27T13:50:35.198Z,98641.42
2023-03-27T13:53:41.774Z,98640.04
2023-03-27T13:56:28.283Z,98634.00
2023-03-27T13:59:38.850Z,98632.23
2023-03-27T14:02:29.561Z,98630.16
2023-03-27T14:05:10.582Z,98630.33
2023-03-27T14:07:48.360Z,98622.98
2023-03-27T14:10:36.378Z,98620.13
2023-03-27T14:13:51.153Z,98619.48
2023-03-27T14:17:03.028Z,98622.82
2023-03-27T14:19:50.148Z,98615.36
2023-03-27T14:22:24.566Z,98612.29
2023-03-27T14:25:04.426Z,98611.23
2023-03-27T14:27:45.803Z,98615.29
2023-03-27T14:30:17.830Z,98617.50
2023-03-27T14:32:50.572Z,98614.63
2023-03-27T14:35:39.991Z,98614.56
2023-03-27T14:38:24.961Z,98609.48
2023-03-27T14:40:57.466Z,98607.84
2023-03-27T14:43:44.382Z,98606.66
2023-03-27T14:46:14.740Z,98606.06
2023-03-27T14:48:46.485Z,98604.19
2023-03-27T14:51:19.965Z,98607.86
2023-03-27T14:53:51.040Z,98608.99
2023-03-27T14:56:47.932Z,98607.92
2023-03-27T14:59:49.362Z,98607.52
2023-03-27T15:02:35.171Z,98602.44
2023-03-27T15:05:15.011Z,98601.26
2023-03-27T15:07:49.231Z,98596.46
2023-03-27T15:10:39.430Z,98595.17
2023-03-27T15:13:26.683Z,98599.48
2023-03-27T15:15:58.914Z,98597.23
2023-03-27T15:18:33.477Z,98595.23
2023-03-27T15:21:07.983Z,98591.75
2023-03-27T15:23:42.580Z,98590.34
2023-03-27T15:26:15.519Z,98591.43
2023-03-27T15:28:51.556Z,98592.34
2023-03-27T15:31:19.979Z,98590.54
2023-03-27T15:34:03.616Z,98591.36
2023-03-27T15:36:35.957Z,98589.89
2023-03-27T15:39:06.728Z,98588.63
2023-03-27T15:41:38.908Z,98588.70
2023-03-27T15:44:22.059Z,98593.71
2023-03-27T15:46:57.601Z,98592.25
2023-03-27T15:49:32.929Z,98592.78
2023-03-27T15:52:22.848Z,98593.56
2023-03-27T15:54:55.722Z,98592.64
2023-03-27T15:57:25.347Z,98587.50
2023-03-27T15:59:54.298Z,98589.39
2023-03-27T16:02:25.482Z,98587.39
2023-03-27T16:04:58.874Z,98591.17
2023-03-27T16:07:31.700Z,98589.32
2023-03-27T16:10:06.770Z,98587.80
2023-03-27T16:12:42.990Z,98581.23
2023-03-27T16:15:45.680Z,98581.88
2023-03-27T16:18:18.630Z,98587.16
2023-03-27T16:20:49.129Z,98586.83
2023-03-27T16:23:17.942Z,98586.05
2023-03-27T16:26:10.012Z,98586.35
2023-03-27T16:28:38.357Z,98583.20
2023-03-27T16:31:15.244Z,98584.88
2023-03-27T16:33:47.448Z,98584.20
2023-03-27T16:36:18.831Z,98585.27
2023-03-27T16:38:48.773Z,98587.04
2023-03-27T16:41:17.875Z,98587.95
2023-03-27T16:43:46.658Z,98589.84
2023-03-27T16:46:22.072Z,98589.21
2023-03-27T16:48:54.116Z,98592.35
2023-03-27T16:51:24.862Z,98590.21
2023-03-27T16:53:53.394Z,98586.08
2023-03-27T16:56:22.960Z,98589.70
2023-03-27T16:58:52.509Z,98585.86
2023-03-27T17:01:24.804Z,98582.89
2023-03-27T17:03:54.504Z,98587.70
2023-03-27T17:06:23.061Z,98585.20
2023-03-27T17:08:55.957Z,98586.78
2023-03-27T17:11:24.949Z,98589.24
2023-03-27T17:13:54.136Z,98592.17
2023-03-27T17:16:22.442Z,98589.43
2023-03-27T17:18:52.949Z,98587.98
2023-03-27T17:21:22.554Z,98588.70
2023-03-27T17:23:56.321Z,98590.30
2023-03-27T17:26:27.387Z,98590.69
2023-03-27T17:28:58.030Z,98592.41
2023-03-27T17:31:30.236Z,98588.19
2023-03-27T17:33:59.616Z,98590.88
2023-03-27T17:36:38.757Z,98591.70
2023-03-27T17:39:09.824Z,98595.23
2023-03-27T17:41:38.265Z,98594.55
2023-03-27T17:44:08.014Z,98598.39
2023-03-27T17:46:38.039Z,98591.52
2023-03-27T17:49:08.416Z,98588.05
2023-03-27T17:51:37.818Z,98591.64
2023-03-27T17:54:10.086Z,98594.50
2023-03-27T17:56:38.909Z,98589.07
2023-03-27T17:59:10.238Z,98582.77
2023-03-27T18:01:40.696Z,98584.41
2023-03-27T18:04:10.778Z,98583.85
2023-03-27T18:06:38.955Z,98591.55
2023-03-27T18:09:10.102Z,98598.92
2023-03-27T18:11:39.397Z,98595.39
2023-03-27T18:14:08.185Z,98599.80
2023-03-27T18:16:38.436Z,98596.40
2023-03-27T18:19:09.319Z,98589.28
2023-03-27T18:21:39.167Z,98594.41
2023-03-27T18:24:08.252Z,98594.20
2023-03-27T18:26:36.937Z,98595.92
2023-03-27T18:29:07.674Z,98585.38
2023-03-27T18:31:36.710Z,98579.55
2023-03-27T18:34:05.366Z,98585.69
2023-03-27T18:36:35.369Z,98582.09
2023-03-27T18:39:06.821Z,98588.98
2023-03-27T18:41:36.426Z,98584.60
2023-03-27T18:44:05.319Z,98589.94
2023-03-27T18:46:36.878Z,98589.24
2023-03-27T18:49:21.408Z,98587.02
2023-03-27T18:51:54.532Z,98579.95
2023-03-27T18:54:24.316Z,98581.98
2023-03-27T18:56:54.746Z,98579.59
2023-03-27T18:59:23.041Z,98580.91
2023-03-27T19:01:52.587Z,98573.73
2023-03-27T19:04:21.634Z,98572.30
2023-03-27T19:06:49.939Z,98569.63
2023-03-27T19:09:23.475Z,98564.36
2023-03-27T19:12:03.578Z,98568.16
2023-03-27T19:14:50.910Z,98569.59
2023-03-27T19:17:41.000Z,98570.85
2023-03-27T19:20:26.803Z,98574.75
2023-03-27T19:23:18.831Z,98577.39
2023-03-27T19:25:51.894Z,98577.86
2023-03-27T19:28:21.716Z,98582.60
2023-03-27T19:30:52.967Z,98575.20
2023-03-27T19:33:23.298Z,98572.23
2023-03-27T19:35:54.555Z,98576.05
2023-03-27T19:38:27.505Z,98567.66
2023-03-27T19:40:57.745Z,98558.87
2023-03-27T19:43:28.985Z,98554.36
2023-03-27T19:46:12.503Z,98551.82
2023-03-27T19:48:47.752Z,98545.18
2023-03-27T19:51:27.096Z,98535.88
2023-03-27T19:54:01.408Z,98533.36
2023-03-27T19:56:31.019Z,98529.39
2023-03-27T19:59:00.011Z,98531.18
2023-03-27T20:01:29.753Z,98528.42
2023-03-27T20:03:59.284Z,98527.77
2023-03-27T20:06:29.073Z,98525.69
2023-03-27T20:09:02.906Z,98521.84
2023-03-27T20:11:31.737Z,98517.88
2023-03-27T20:13:59.911Z,98516.85
2023-03-27T20:16:31.546Z,98512.65
2023-03-27T20:19:06.610Z,98512.73
2023-03-27T20:21:39.751Z,98515.10
2023-03-27T20:24:12.489Z,98514.16
2023-03-27T20:26:48.648Z,98512.40
2023-03-27T20:29:27.197Z,98514.60
2023-03-27T20:31:56.224Z,98515.06
2023-03-27T20:34:24.640Z,98512.35
2023-03-27T20:36:53.638Z,98507.23
2023-03-27T20:39:34.301Z,98502.52
2023-03-27T20:42:02.672Z,98504.58
2023-03-27T20:44:38.175Z,98498.48
2023-03-27T20:47:12.320Z,98494.02
2023-03-27T20:49:45.780Z,98493.02
2023-03-27T20:52:18.747Z,98484.63
2023-03-27T20:54:48.630Z,98483.25
2023-03-27T20:57:21.982Z,98481.66
2023-03-27T20:59:51.664Z,98483.37
2023-03-27T21:02:22.211Z,98488.79
2023-03-27T21:04:50.853Z,98493.70
2023-03-27T21:07:20.433Z,98497.73
2023-03-27T21:09:56.722Z,98494.32
2023-03-27T21:12:25.360Z,98483.79
2023-03-27T21:14:53.890Z,98478.41
2023-03-27T21:17:22.268Z,98473.45
2023-03-27T21:19:51.213Z,98471.27
2023-03-27T21:22:22.728Z,98465.73
2023-03-27T21:24:51.418Z,98458.90
2023-03-27T21:27:20.293Z,98458.55
2023-03-27T21:29:55.312Z,98459.07
2023-03-27T21:32:25.436Z,98458.21
2023-03-27T21:34:53.627Z,98452.45
2023-03-27T21:37:22.208Z,98453.14
2023-03-27T21:39:51.927Z,98440.66
2023-03-27T21:42:22.056Z,98441.13
2023-03-27T21:44:55.624Z,98435.13
2023-03-27T21:47:37.287Z,98437.05
2023-03-27T21:50:17.690Z,98435.73
2023-03-27T21:52:47.920Z,98439.02
2023-03-27T21:55:17.776Z,98436.90
2023-03-27T21:57:46.317Z,98438.70
2023-03-27T22:00:21.755Z,98442.26
2023-03-27T22:03:03.317Z,98438.27
2023-03-27T22:05:38.342Z,98433.65
2023-03-27T22:08:09.018Z,98429.45
2023-03-27T22:10:43.539Z,98428.04
2023-03-27T22:13:11.811Z,98427.39
2023-03-27T22:15:44.439Z,98428.70
2023-03-27T22:18:13.030Z,98430.73
2023-03-27T22:20:43.299Z,98431.16
2023-03-27T22:23:15.072Z,98431.09
2023-03-27T22:25:53.109Z,98433.63
2023-03-27T22:28:22.728Z,98428.34
2023-03-27T22:30:51.082Z,98425.17
2023-03-27T22:33:19.528Z,98426.52
2023-03-27T22:35:53.175Z,98428.39
2023-03-27T22:39:52.030Z,98429.02
2023-03-27T22:42:22.555Z,98424.59
2023-03-27T22:44:51.786Z,98429.02
2023-03-27T22:47:20.139Z,98427.53
2023-03-27T22:49:50.854Z,98427.33
2023-03-27T22:52:20.074Z,98424.69
2023-03-27T22:54:48.960Z,98424.30
2023-03-27T22:57:19.546Z,98416.40
2023-03-27T22:59:54.697Z,98412.89
2023-03-27T23:02:25.733Z,98408.17
2023-03-27T23:04:54.360Z,98407.84
2023-03-27T23:07:22.942Z,98410.05
2023-03-27T23:09:53.075Z,98415.77
2023-03-27T23:12:21.547Z,98411.33
2023-03-27T23:14:52.799Z,98405.73
2023-03-27T23:17:21.521Z,98401.63
2023-03-27T23:19:50.163Z,98398.19
2023-03-27T23:22:18.951Z,98394.36
2023-03-27T23:24:49.623Z,98393.52
2023-03-27T23:27:20.653Z,98395.60
2023-03-27T23:29:49.108Z,98391.88
2023-03-27T23:32:18.101Z,98388.17
2023-03-27T23:34:47.408Z,98385.91
2023-03-27T23:37:16.406Z,98380.00
2023-03-27T23:39:46.922Z,98378.39
2023-03-27T23:42:16.018Z,98372.39
2023-03-27T23:44:45.524Z,98370.14
2023-03-27T23:47:16.260Z,98369.70
2023-03-27T23:49:44.535Z,98367.73
2023-03-27T23:52:20.822Z,98369.45
2023-03-27T23:54:53.502Z,98370.14
2023-03-27T23:57:23.750Z,98371.13
